Thunderstorms From: 20-05-2018 05:00 Until: 21-05-2018 05:00 warning for: Thunderstorms Level: Yellow info button

Although rather usual in this region, locally or potentially dangerous phenomena are expected. (such as local winds, summer thunderstorms, rising streams or high waves) Be aware and pay attention to the latest weather updates, especially if you carry out activities exposed to weather or close to a stream or shoreline. 


Meteo18 Weather Cam more information Meteo18 Weather Cam


warning for Thunderstorms more information blitzortung!


Rain radar more information rain snow radar


Visit our other weather sites:

Template documentation
and downloads

And another site



Weather Underground History page Text

Daily Summary for May 14, 2017 Units:  English    Metric   Both
« Previous Day
Next Day »
Daily Weekly Monthly Yearly Custom
  High: Low: Average:
Temperature: TemperatureC °F 10.1 °F 15.2 °F
Dew Point: DewpointC °F 8.9 °F 11.4 °F
Humidity: Humidity % 55 % 79 %
Wind Speed: WindSpeedKMH mph 0.0 mph 4.1 mph
Wind Gust: WindSpeedGustKMH mph - -
Wind:- - WSW
Pressure: PressurehPa in 1018.5 in -
Precipitation: 2.3 in    
Historical Graphs
 
 
Tabular Data for May 14, 2017
Time Temperature Dew Point Pressure Wind Wind Speed Wind Gust Humidity Rainfall Rate (Hourly)
TemperatureC °F DewpointC °F PressurehPa in Calm     Humidity % HourlyPrecipMM in
00:02 12.4 °F 10.6 °F 1018.5 in Calm   3.2 mph 89 % 0.0 in
00:12 12.4 °F 10.8 °F 1018.5 in Calm   3.2 mph 90 % 0.0 in
00:17 12.2 °F 10.6 °F 1018.8 in Calm   3.2 mph 90 % 0.0 in
00:22 12.2 °F 10.6 °F 1018.8 in Calm   3.2 mph 90 % 0.0 in
00:32 12.4 °F 11.0 °F 1018.8 in Calm   1.6 mph 91 % 0.0 in
00:42 12.6 °F 11.2 °F 1018.8 in Calm   1.6 mph 91 % 0.0 in
00:52 12.9 °F 11.5 °F 1019.2 in SW 1.6 mph 1.6 mph 91 % 0.0 in
00:57 13.1 °F 11.5 °F 1019.2 in Calm   4.8 mph 90 % 0.0 in
01:02 12.6 °F 10.7 °F 1019.2 in Calm   4.8 mph 88 % 0.0 in
01:12 12.2 °F 10.6 °F 1019.5 in Calm   4.8 mph 90 % 0.0 in
01:17 12.3 °F 11.0 °F 1019.5 in Calm   1.6 mph 92 % 0.0 in
01:22 12.5 °F 11.2 °F 1019.5 in Calm   1.6 mph 92 % 0.0 in
01:32 12.7 °F 11.4 °F 1019.2 in Calm   1.6 mph 92 % 0.0 in
01:37 12.9 °F 11.6 °F 1019.5 in Calm   1.6 mph 92 % 0.0 in
01:42 13.0 °F 11.6 °F 1019.5 in Calm     91 % 0.0 in
01:47 12.8 °F 11.2 °F 1019.5 in Calm   1.6 mph 90 % 0.0 in
01:52 12.4 °F 10.8 °F 1019.5 in Calm   4.8 mph 90 % 0.0 in
01:57 12.2 °F 10.8 °F 1019.9 in South 1.6 mph 4.8 mph 91 % 0.0 in
02:02 12.1 °F 10.8 °F 1019.9 in Calm   3.2 mph 92 % 0.0 in
02:07 12.1 °F 10.8 °F 1019.9 in South 1.6 mph 3.2 mph 92 % 0.0 in
02:12 12.0 °F 10.9 °F 1019.9 in SSW 1.6 mph 3.2 mph 93 % 0.0 in
02:17 12.0 °F 10.9 °F 1019.9 in Calm   3.2 mph 93 % 0.0 in
02:22 11.9 °F 10.8 °F 1019.9 in SSW 1.6 mph 3.2 mph 93 % 0.0 in
02:32 12.1 °F 11.2 °F 1019.9 in SW 4.8 mph 4.8 mph 94 % 0.0 in
02:37 12.2 °F 11.3 °F 1020.2 in SSW 6.4 mph 8.0 mph 94 % 0.0 in
02:42 12.2 °F 11.3 °F 1020.2 in SSW 1.6 mph 8.0 mph 94 % 0.8 in
02:47 12.2 °F 11.3 °F 1020.2 in SSW 3.2 mph 8.0 mph 94 % 1.5 in
02:52 12.2 °F 11.3 °F 1020.2 in SSW 1.6 mph 8.0 mph 94 % 1.5 in
02:57 12.1 °F 11.2 °F 1020.2 in Calm   4.8 mph 94 % 1.5 in
03:07 12.1 °F 11.3 °F 1020.2 in Calm   3.2 mph 95 % 1.5 in
03:12 12.2 °F 11.4 °F 1020.2 in SW 1.6 mph 3.2 mph 95 % 1.5 in
03:17 12.2 °F 11.4 °F 1020.5 in Calm   3.2 mph 95 % 1.5 in
03:22 12.1 °F 11.3 °F 1020.5 in SSW 1.6 mph 3.2 mph 95 % 1.5 in
03:27 12.1 °F 11.3 °F 1020.5 in Calm   3.2 mph 95 % 1.5 in
03:32 12.2 °F 11.4 °F 1020.5 in Calm   6.4 mph 95 % 1.5 in
03:37 12.2 °F 11.4 °F 1020.5 in Calm   6.4 mph 95 % 1.5 in
03:42 12.3 °F 11.5 °F 1020.5 in Calm   3.2 mph 95 % 0.5 in
03:47 12.3 °F 11.5 °F 1020.5 in Calm   1.6 mph 95 % 0.0 in
03:52 12.3 °F 11.5 °F 1020.5 in Calm   3.2 mph 95 % 0.0 in
03:57 12.2 °F 11.4 °F 1020.5 in Calm   3.2 mph 95 % 0.0 in
04:02 12.2 °F 11.4 °F 1020.5 in SSW 1.6 mph 3.2 mph 95 % 0.0 in
04:12 12.1 °F 11.3 °F 1020.5 in Calm   4.8 mph 95 % 0.0 in
04:22 12.1 °F 11.3 °F 1020.5 in Calm   4.8 mph 95 % 0.3 in
04:27 12.0 °F 11.2 °F 1020.5 in Calm   1.6 mph 95 % 0.3 in
04:32 11.9 °F 11.1 °F 1020.5 in Calm   1.6 mph 95 % 0.3 in
04:37 11.9 °F 11.1 °F 1020.9 in Calm   1.6 mph 95 % 0.3 in
04:42 11.9 °F 11.1 °F 1020.9 in Calm     95 % 0.3 in
04:47 11.9 °F 11.3 °F 1020.9 in Calm     96 % 0.3 in
04:52 11.9 °F 11.3 °F 1020.9 in Calm     96 % 0.3 in
05:02 11.8 °F 11.2 °F 1021.2 in Calm     96 % 0.3 in
05:12 11.8 °F 11.2 °F 1021.2 in Calm     96 % 0.3 in
05:17 11.7 °F 11.1 °F 1021.2 in Calm     96 % 0.0 in
05:22 11.7 °F 11.1 °F 1021.2 in Calm     96 % 0.0 in
05:32 11.7 °F 11.1 °F 1021.2 in Calm     96 % 0.0 in
05:37 11.6 °F 11.0 °F 1021.2 in Calm     96 % 0.0 in
05:42 11.6 °F 11.0 °F 1021.2 in Calm     96 % 0.0 in
05:47 11.4 °F 10.8 °F 1021.2 in Calm     96 % 0.0 in
05:52 11.3 °F 10.7 °F 1021.6 in Calm     96 % 0.0 in
05:57 11.2 °F 10.6 °F 1021.6 in Calm     96 % 0.0 in
06:02 11.1 °F 10.5 °F 1021.6 in Calm     96 % 0.0 in
06:12 10.8 °F 10.2 °F 1021.6 in Calm     96 % 0.0 in
06:17 10.8 °F 10.2 °F 1021.6 in Calm     96 % 0.0 in
06:22 10.7 °F 10.1 °F 1021.6 in Calm     96 % 0.0 in
06:27 10.7 °F 10.1 °F 1021.6 in Calm     96 % 0.0 in
06:32 10.4 °F 9.6 °F 1021.6 in Calm   1.6 mph 95 % 0.0 in
06:37 10.2 °F 9.6 °F 1021.6 in Calm   1.6 mph 96 % 0.0 in
06:42 10.1 °F 9.5 °F 1021.6 in Calm     96 % 0.0 in
06:47 10.2 °F 9.6 °F 1021.9 in Calm     96 % 0.0 in
06:57 11.2 °F 10.7 °F 1021.9 in Calm     97 % 0.0 in
07:02 10.9 °F 10.1 °F 1021.9 in Calm     95 % 0.0 in
07:07 10.8 °F 10.0 °F 1021.9 in Calm     95 % 0.0 in
07:12 10.8 °F 10.0 °F 1022.2 in Calm     95 % 0.0 in
07:17 10.7 °F 9.9 °F 1022.2 in Calm     95 % 0.0 in
07:27 11.1 °F 10.5 °F 1022.2 in Calm     96 % 0.0 in
07:32 10.9 °F 10.0 °F 1022.2 in Calm     94 % 0.0 in
07:37 10.9 °F 10.1 °F 1022.2 in SSW 3.2 mph   95 % 0.0 in
07:42 11.0 °F 10.2 °F 1022.2 in Calm   3.2 mph 95 % 0.0 in
07:47 11.2 °F 10.4 °F 1022.6 in SSW 3.2 mph 3.2 mph 95 % 0.0 in
07:52 11.3 °F 10.5 °F 1022.6 in Calm   3.2 mph 95 % 0.0 in
07:57 11.7 °F 11.1 °F 1022.6 in Calm   3.2 mph 96 % 0.0 in
08:02 11.9 °F 11.3 °F 1022.6 in Calm   3.2 mph 96 % 0.0 in
08:12 12.4 °F 11.6 °F 1022.6 in SSW 3.2 mph 4.8 mph 95 % 0.0 in
08:17 12.7 °F 11.9 °F 1022.6 in SW 1.6 mph 6.4 mph 95 % 0.0 in
08:22 12.8 °F 12.0 °F 1022.6 in SW 8.0 mph 8.0 mph 95 % 0.0 in
08:32 12.8 °F 11.7 °F 1022.9 in SW 6.4 mph 9.7 mph 93 % 0.0 in
08:37 12.8 °F 11.7 °F 1022.9 in SW 3.2 mph 11.3 mph 93 % 0.0 in
08:42 12.8 °F 11.7 °F 1022.9 in SW 4.8 mph 11.3 mph 93 % 0.0 in
08:47 12.8 °F 11.5 °F 1023.2 in WSW 6.4 mph 11.3 mph 92 % 0.0 in
08:57 13.2 °F 11.9 °F 1023.2 in SW 6.4 mph 9.7 mph 92 % 0.0 in
09:02 13.3 °F 11.9 °F 1023.2 in SW 4.8 mph 11.3 mph 91 % 0.0 in
09:12 13.6 °F 11.8 °F 1023.2 in SW 4.8 mph 11.3 mph 89 % 0.0 in
09:17 13.6 °F 11.5 °F 1023.6 in SW 6.4 mph 9.7 mph 87 % 0.0 in
09:27 13.7 °F 11.7 °F 1023.6 in WSW 3.2 mph 9.7 mph 88 % 0.0 in
09:32 13.8 °F 11.8 °F 1023.9 in Calm   9.7 mph 88 % 0.0 in
09:42 14.0 °F 11.7 °F 1023.9 in WSW 3.2 mph 8.0 mph 86 % 0.0 in
09:47 14.0 °F 11.5 °F 1023.9 in SW 3.2 mph 8.0 mph 85 % 0.0 in
09:52 14.3 °F 12.0 °F 1023.9 in South 4.8 mph 8.0 mph 86 % 0.0 in
09:57 14.5 °F 12.0 °F 1023.9 in SSW 4.8 mph 8.0 mph 85 % 0.0 in
10:02 14.6 °F 11.9 °F 1023.9 in SW 3.2 mph 8.0 mph 84 % 0.0 in
10:12 14.9 °F 12.2 °F 1023.9 in SW 4.8 mph 9.7 mph 84 % 0.0 in
10:17 14.9 °F 12.0 °F 1023.9 in South 6.4 mph 11.3 mph 83 % 0.0 in
10:22 14.9 °F 12.0 °F 1024.3 in SW 8.0 mph 12.9 mph 83 % 0.0 in
10:32 15.2 °F 12.0 °F 1024.3 in WSW 6.4 mph 12.9 mph 81 % 0.0 in
10:37 15.2 °F 11.6 °F 1024.3 in SW 3.2 mph 14.5 mph 79 % 0.0 in
10:42 15.4 °F 12.3 °F 1024.3 in SW 6.4 mph 16.1 mph 82 % 0.0 in
10:47 15.7 °F 12.1 °F 1024.3 in WSW 4.8 mph 16.1 mph 79 % 0.0 in
10:57 16.1 °F 11.7 °F 1024.3 in SSW 4.8 mph 11.3 mph 75 % 0.0 in
11:07 16.2 °F 12.0 °F 1024.3 in SSW 4.8 mph 12.9 mph 76 % 0.0 in
11:12 16.4 °F 12.0 °F 1024.3 in WSW 4.8 mph 12.9 mph 75 % 0.0 in
11:17 16.7 °F 11.6 °F 1024.3 in WSW 6.4 mph 16.1 mph 72 % 0.0 in
11:22 16.5 °F 11.2 °F 1024.3 in WSW 8.0 mph 16.1 mph 71 % 0.0 in
11:27 16.5 °F 11.4 °F 1024.3 in SW 6.4 mph 14.5 mph 72 % 0.0 in
11:32 16.8 °F 11.9 °F 1024.3 in South 6.4 mph 14.5 mph 73 % 0.0 in
11:42 17.3 °F 12.6 °F 1024.3 in SSW 3.2 mph 12.9 mph 74 % 0.0 in
11:47 17.3 °F 10.9 °F 1024.3 in SW 9.7 mph 12.9 mph 66 % 0.0 in
11:52 17.3 °F 11.6 °F 1024.3 in SSE 6.4 mph 16.1 mph 69 % 0.0 in
11:57 17.4 °F 11.4 °F 1024.3 in South 8.0 mph 16.1 mph 68 % 0.0 in
12:02 17.4 °F 10.8 °F 1024.3 in SW 14.5 mph 16.1 mph 65 % 0.0 in
12:12 17.7 °F 10.8 °F 1024.3 in SW 9.7 mph 19.3 mph 64 % 0.0 in
12:17 17.8 °F 10.9 °F 1024.3 in SW 9.7 mph 19.3 mph 64 % 0.0 in
12:22 17.9 °F 10.5 °F 1024.3 in SW 11.3 mph 19.3 mph 62 % 0.0 in
12:32 18.1 °F 9.7 °F 1024.3 in SW 6.4 mph 19.3 mph 58 % 0.0 in
12:42 18.2 °F 10.3 °F 1024.6 in WSW 14.5 mph 27.4 mph 60 % 0.0 in
12:52 18.4 °F 10.7 °F 1024.6 in WSW 12.9 mph 24.1 mph 61 % 0.0 in
12:57 18.4 °F 10.2 °F 1024.6 in SSW 6.4 mph 24.1 mph 59 % 0.0 in
13:02 18.8 °F 11.1 °F 1024.6 in SW 6.4 mph 20.9 mph 61 % 0.0 in
13:07 19.1 °F 11.6 °F 1024.6 in SSW 11.3 mph 20.9 mph 62 % 0.0 in
13:12 19.3 °F 11.8 °F 1024.6 in SW 11.3 mph 22.5 mph 62 % 0.0 in
13:17 19.4 °F 11.2 °F 1024.6 in SSW 11.3 mph 22.5 mph 59 % 0.0 in
13:22 19.4 °F 11.4 °F 1024.6 in SW 6.4 mph 22.5 mph 60 % 0.0 in
13:27 19.5 °F 11.3 °F 1024.6 in SW 6.4 mph 20.9 mph 59 % 0.0 in
13:32 19.6 °F 11.9 °F 1024.6 in SW 17.7 mph 20.9 mph 61 % 0.0 in
13:37 19.3 °F 11.1 °F 1024.6 in SW 8.0 mph 20.9 mph 59 % 0.0 in
13:42 19.1 °F 11.4 °F 1024.9 in SSW 9.7 mph 20.9 mph 61 % 0.0 in
13:52 19.1 °F 11.9 °F 1024.6 in SW 6.4 mph 19.3 mph 63 % 0.0 in
13:57 19.2 °F 11.7 °F 1024.6 in WSW 11.3 mph 19.3 mph 62 % 0.0 in
14:02 19.1 °F 10.6 °F 1024.9 in SW 9.7 mph 20.9 mph 58 % 0.0 in
14:07 19.2 °F 11.0 °F 1024.9 in WSW 14.5 mph 20.9 mph 59 % 0.0 in
14:12 19.2 °F 11.2 °F 1024.9 in SW 12.9 mph 20.9 mph 60 % 0.0 in
14:17 19.2 °F 11.0 °F 1024.9 in WSW 8.0 mph 19.3 mph 59 % 0.0 in
14:22 19.4 °F 11.4 °F 1024.9 in SW 4.8 mph 19.3 mph 60 % 0.0 in
14:32 19.5 °F 11.5 °F 1024.9 in SSW 6.4 mph 17.7 mph 60 % 0.0 in
14:37 19.9 °F 12.2 °F 1024.9 in WSW 4.8 mph 17.7 mph 61 % 0.0 in
14:42 20.1 °F 11.6 °F 1024.6 in WSW 6.4 mph 17.7 mph 58 % 0.0 in
14:47 20.2 °F 11.7 °F 1024.6 in SSW 9.7 mph 19.3 mph 58 % 0.0 in
14:52 20.3 °F 11.0 °F 1024.6 in SSW 19.3 mph 19.3 mph 55 % 0.0 in
14:57 20.2 °F 11.7 °F 1024.6 in West 6.4 mph 19.3 mph 58 % 0.0 in
15:02 20.0 °F 11.2 °F 1024.6 in SW 11.3 mph 19.3 mph 57 % 0.0 in
15:07 19.8 °F 11.6 °F 1024.6 in SW 14.5 mph 19.3 mph 59 % 0.0 in
15:12 19.7 °F 11.7 °F 1024.6 in WSW 9.7 mph 20.9 mph 60 % 0.0 in
15:17 19.6 °F 11.4 °F 1024.6 in West 6.4 mph 22.5 mph 59 % 0.0 in
15:22 19.3 °F 11.3 °F 1024.6 in WSW 6.4 mph 22.5 mph 60 % 0.0 in
15:27 18.9 °F 11.2 °F 1024.9 in West 17.7 mph 22.5 mph 61 % 0.0 in
15:32 17.3 °F 12.2 °F 1024.9 in West 4.8 mph 30.6 mph 72 % 0.0 in
15:37 16.8 °F 12.5 °F 1024.9 in WNW 11.3 mph 30.6 mph 76 % 0.5 in
15:42 17.0 °F 12.7 °F 1024.9 in West 3.2 mph 30.6 mph 76 % 0.5 in
15:47 17.4 °F 12.9 °F 1024.6 in SW 4.8 mph 19.3 mph 75 % 0.5 in
15:52 17.8 °F 12.9 °F 1024.6 in West 4.8 mph 19.3 mph 73 % 0.5 in
16:02 18.7 °F 12.2 °F 1024.6 in West 6.4 mph 12.9 mph 66 % 0.5 in
16:07 19.2 °F 13.4 °F 1024.6 in WSW 8.0 mph 16.1 mph 69 % 0.5 in
16:12 19.3 °F 12.6 °F 1024.6 in WSW 3.2 mph 16.1 mph 65 % 0.5 in
16:17 19.3 °F 12.8 °F 1024.6 in West 8.0 mph 11.3 mph 66 % 0.5 in
16:22 19.1 °F 12.4 °F 1024.6 in WNW 4.8 mph 11.3 mph 65 % 0.5 in
16:27 19.1 °F 12.4 °F 1024.3 in WNW 9.7 mph 12.9 mph 65 % 0.5 in
16:32 19.2 °F 13.1 °F 1024.6 in WNW 8.0 mph 12.9 mph 68 % 0.3 in
16:37 19.2 °F 13.4 °F 1024.6 in West 4.8 mph 14.5 mph 69 % 0.0 in
16:42 19.1 °F 13.3 °F 1024.6 in WSW 11.3 mph 14.5 mph 69 % 0.0 in
16:47 19.1 °F 13.3 °F 1024.6 in WNW 11.3 mph 14.5 mph 69 % 0.0 in
16:52 19.1 °F 13.1 °F 1024.6 in West 4.8 mph 16.1 mph 68 % 0.0 in
16:57 19.0 °F 12.5 °F 1024.9 in West 8.0 mph 17.7 mph 66 % 0.0 in
17:02 18.9 °F 12.6 °F 1024.9 in West 9.7 mph 19.3 mph 67 % 0.0 in
17:12 17.7 °F 12.4 °F 1024.9 in WNW 11.3 mph 27.4 mph 71 % 0.0 in
17:17 17.6 °F 11.8 °F 1024.9 in West 9.7 mph 27.4 mph 69 % 0.0 in
17:22 17.7 °F 12.6 °F 1024.9 in West 9.7 mph 24.1 mph 72 % 0.0 in
17:27 18.1 °F 13.2 °F 1024.9 in West 3.2 mph 16.1 mph 73 % 0.0 in
17:32 18.2 °F 12.9 °F 1024.9 in West 4.8 mph 17.7 mph 71 % 0.0 in
17:42 18.3 °F 13.0 °F 1024.9 in WSW 9.7 mph 17.7 mph 71 % 0.0 in
17:52 18.7 °F 12.9 °F 1024.9 in West 4.8 mph 14.5 mph 69 % 0.0 in
17:57 18.8 °F 13.2 °F 1024.9 in West 8.0 mph 14.5 mph 70 % 0.0 in
18:02 19.1 °F 13.3 °F 1024.9 in WSW 11.3 mph 14.5 mph 69 % 0.0 in
18:12 19.6 °F 12.8 °F 1024.9 in WSW 12.9 mph 19.3 mph 65 % 0.0 in
18:17 19.6 °F 12.4 °F 1024.9 in WSW 3.2 mph 19.3 mph 63 % 0.0 in
18:22 19.6 °F 10.8 °F 1024.9 in West 6.4 mph 19.3 mph 57 % 0.0 in
18:27 19.6 °F 11.4 °F 1024.9 in South 6.4 mph 20.9 mph 59 % 0.0 in
18:32 19.6 °F 11.4 °F 1024.9 in WSW 16.1 mph 20.9 mph 59 % 0.0 in
18:37 19.5 °F 11.3 °F 1024.9 in WSW 4.8 mph 22.5 mph 59 % 0.0 in
18:42 19.7 °F 12.2 °F 1024.9 in WNW 4.8 mph 22.5 mph 62 % 0.0 in
18:52 19.6 °F 12.1 °F 1024.9 in WSW 8.0 mph 16.1 mph 62 % 0.0 in
18:57 19.4 °F 11.9 °F 1024.9 in West 8.0 mph 17.7 mph 62 % 0.0 in
19:02 19.5 °F 12.3 °F 1024.9 in West 6.4 mph 17.7 mph 63 % 0.0 in
19:12 19.5 °F 12.5 °F 1025.3 in WNW 6.4 mph 12.9 mph 64 % 0.0 in
19:17 19.4 °F 12.2 °F 1025.3 in West 11.3 mph 12.9 mph 63 % 0.0 in
19:22 19.1 °F 12.1 °F 1025.3 in West 4.8 mph 14.5 mph 64 % 0.0 in
19:27 18.9 °F 12.2 °F 1025.3 in SW 4.8 mph 14.5 mph 65 % 0.0 in
19:32 18.9 °F 11.9 °F 1025.3 in WSW 12.9 mph 14.5 mph 64 % 0.0 in
19:37 18.9 °F 11.9 °F 1025.3 in West 6.4 mph 12.9 mph 64 % 0.0 in
19:42 18.9 °F 11.9 °F 1025.3 in West 4.8 mph 14.5 mph 64 % 0.0 in
19:52 18.7 °F 11.8 °F 1025.6 in WNW 6.4 mph 12.9 mph 64 % 0.0 in
19:57 18.5 °F 11.8 °F 1025.6 in SW 8.0 mph 12.9 mph 65 % 0.0 in
20:02 18.4 °F 12.2 °F 1025.6 in WSW 9.7 mph 12.9 mph 67 % 0.0 in
20:12 18.7 °F 12.2 °F 1025.6 in West 6.4 mph 9.7 mph 66 % 0.0 in
20:17 18.8 °F 12.3 °F 1026.0 in West 3.2 mph 9.7 mph 66 % 0.0 in
20:22 18.9 °F 12.2 °F 1026.0 in WSW 1.6 mph 9.7 mph 65 % 0.0 in
20:27 18.7 °F 12.4 °F 1026.0 in West 4.8 mph 9.7 mph 67 % 0.0 in
20:32 18.4 °F 12.2 °F 1026.0 in WSW 1.6 mph 8.0 mph 67 % 0.0 in
20:37 18.2 °F 12.2 °F 1026.0 in WSW 3.2 mph 8.0 mph 68 % 0.0 in
20:42 18.1 °F 12.3 °F 1026.0 in Calm   8.0 mph 69 % 0.0 in
20:47 17.8 °F 12.5 °F 1026.0 in WSW 1.6 mph 6.4 mph 71 % 0.0 in
20:52 17.7 °F 12.6 °F 1026.3 in WSW 1.6 mph 4.8 mph 72 % 0.0 in
20:57 17.6 °F 12.5 °F 1026.3 in WSW 1.6 mph 6.4 mph 72 % 0.0 in
21:02 17.4 °F 12.3 °F 1026.3 in West 1.6 mph 6.4 mph 72 % 0.0 in
21:07 17.2 °F 12.3 °F 1026.3 in West 3.2 mph 6.4 mph 73 % 0.0 in
21:12 16.8 °F 12.3 °F 1026.3 in WSW 1.6 mph 3.2 mph 75 % 0.0 in
21:17 16.7 °F 12.2 °F 1026.3 in Calm   3.2 mph 75 % 0.0 in
21:22 16.4 °F 12.2 °F 1026.3 in WNW 3.2 mph 3.2 mph 76 % 0.0 in
21:27 16.1 °F 12.3 °F 1026.6 in Calm   3.2 mph 78 % 0.0 in
21:32 15.8 °F 12.2 °F 1026.6 in Calm   3.2 mph 79 % 0.0 in
21:42 15.3 °F 12.1 °F 1026.6 in Calm   1.6 mph 81 % 0.0 in
21:52 14.6 °F 11.9 °F 1027.0 in West 1.6 mph 1.6 mph 84 % 0.0 in
21:57 14.2 °F 11.7 °F 1027.0 in Calm   1.6 mph 85 % 0.0 in
22:02 14.2 °F 11.5 °F 1027.0 in Calm   1.6 mph 84 % 0.0 in
22:07 14.1 °F 11.3 °F 1027.3 in Calm   1.6 mph 83 % 0.0 in
22:12 14.1 °F 11.3 °F 1027.0 in Calm   1.6 mph 83 % 0.0 in
22:17 14.1 °F 10.9 °F 1027.3 in Calm   3.2 mph 81 % 0.0 in
22:22 14.0 °F 10.8 °F 1027.3 in Calm   3.2 mph 81 % 0.0 in
22:32 13.4 °F 10.2 °F 1027.3 in West 1.6 mph 3.2 mph 81 % 0.0 in
22:42 13.5 °F 9.7 °F 1027.7 in Calm   4.8 mph 78 % 0.0 in
22:47 13.1 °F 9.5 °F 1027.7 in Calm   3.2 mph 79 % 0.0 in
22:52 13.0 °F 9.4 °F 1027.7 in Calm   1.6 mph 79 % 0.0 in
22:57 12.9 °F 9.5 °F 1027.7 in Calm   1.6 mph 80 % 0.0 in
23:02 12.6 °F 9.6 °F 1027.7 in Calm   1.6 mph 82 % 0.0 in
23:07 12.4 °F 9.4 °F 1027.7 in Calm   1.6 mph 82 % 0.0 in
23:12 12.3 °F 9.5 °F 1027.7 in Calm   1.6 mph 83 % 0.0 in
23:17 12.2 °F 9.4 °F 1027.7 in Calm   1.6 mph 83 % 0.0 in
23:22 12.1 °F 9.3 °F 1027.7 in Calm   1.6 mph 83 % 0.0 in
23:27 11.9 °F 9.1 °F 1027.7 in Calm   1.6 mph 83 % 0.0 in
23:37 11.6 °F 9.0 °F 1027.7 in Calm   1.6 mph 84 % 0.0 in
23:42 11.5 °F 8.9 °F 1027.7 in Calm     84 % 0.0 in
23:52 11.3 °F 8.9 °F 1027.7 in Calm     85 % 0.0 in
Meteo18
Compliments of Weather Underground - 4 mb

Script developed by  Jim McMurry - jmcmurry@mwt.net Adapted for the template by  Wim van der Kuil - Leuven-Template.eu

You find our weather info also at:

European Weather Network

Weather Underground

Equipment we use:

Weather-station
Davis Vue

Weather-program
Meteobridge

Weather-server
Raspberry PI 2 B+

Provider
1 and 1

Davis Vue

Meteobridge

Raspberry PI 2 B+

1 and 1